createdAt,value
2022-11-04T00:01:54.449Z,3.42
2022-11-04T00:04:24.775Z,3.45
2022-11-04T00:06:55.158Z,3.75
2022-11-04T00:09:25.620Z,3.33
2022-11-04T00:12:11.525Z,3.40
2022-11-04T00:14:42.975Z,3.40
2022-11-04T00:17:22.038Z,3.35
2022-11-04T00:20:09.719Z,2.90
2022-11-04T00:22:58.119Z,2.58
2022-11-04T00:25:45.128Z,2.78
2022-11-04T00:28:33.479Z,3.28
2022-11-04T00:31:24.071Z,3.42
2022-11-04T00:33:53.202Z,3.42
2022-11-04T00:36:22.824Z,3.28
2022-11-04T00:38:53.379Z,3.83
2022-11-04T00:41:28.794Z,4.53
2022-11-04T00:43:58.598Z,4.03
2022-11-04T00:46:27.507Z,4.07
2022-11-04T00:48:55.895Z,4.85
2022-11-04T00:51:24.585Z,5.12
2022-11-04T00:53:54.847Z,4.45
2022-11-04T00:56:23.450Z,3.42
2022-11-04T00:58:51.871Z,3.87
2022-11-04T01:01:21.146Z,3.40
2022-11-04T01:03:51.396Z,3.42
2022-11-04T01:06:21.706Z,3.53
2022-11-04T01:08:50.099Z,3.12
2022-11-04T01:11:19.855Z,3.53
2022-11-04T01:13:51.682Z,3.15
2022-11-04T01:16:20.579Z,2.78
2022-11-04T01:18:49.386Z,3.12
2022-11-04T01:21:18.712Z,3.83
2022-11-04T01:23:47.726Z,4.53
2022-11-04T01:26:18.405Z,3.00
2022-11-04T01:28:48.554Z,3.75
2022-11-04T01:31:21.186Z,3.33
2022-11-04T01:33:50.095Z,3.70
2022-11-04T01:36:19.330Z,4.40
2022-11-04T01:38:47.689Z,3.72
2022-11-04T01:41:19.743Z,4.00
2022-11-04T01:43:53.241Z,3.25
2022-11-04T01:46:32.588Z,3.37
2022-11-04T01:49:05.625Z,3.20
2022-11-04T01:51:37.967Z,3.30
2022-11-04T01:54:09.488Z,3.25
2022-11-04T01:56:38.944Z,4.00
2022-11-04T01:59:13.551Z,3.28
2022-11-04T02:01:42.218Z,3.35
2022-11-04T02:04:27.443Z,3.37
2022-11-04T02:06:57.915Z,3.12
2022-11-04T02:09:28.663Z,3.83
2022-11-04T02:12:14.548Z,3.20
2022-11-04T02:14:45.802Z,3.10
2022-11-04T02:17:28.422Z,2.97
2022-11-04T02:20:10.235Z,3.05
2022-11-04T02:23:00.199Z,3.15
2022-11-04T02:25:52.320Z,3.70
2022-11-04T02:28:52.123Z,2.95
2022-11-04T02:31:32.422Z,3.17
2022-11-04T02:34:10.953Z,2.90
2022-11-04T02:36:48.391Z,2.47
2022-11-04T02:39:26.716Z,2.45
2022-11-04T02:41:58.869Z,2.92
2022-11-04T02:44:34.144Z,2.53
2022-11-04T02:47:09.425Z,2.40
2022-11-04T02:49:45.274Z,2.55
2022-11-04T02:52:19.894Z,2.78
2022-11-04T02:54:52.073Z,2.22
2022-11-04T02:57:23.571Z,2.05
2022-11-04T02:59:58.289Z,2.78
2022-11-04T03:02:33.071Z,2.60
2022-11-04T03:05:04.460Z,2.67
2022-11-04T03:07:37.636Z,2.47
2022-11-04T03:10:12.717Z,2.90
2022-11-04T03:12:46.110Z,2.50
2022-11-04T03:15:20.736Z,2.60
2022-11-04T03:17:55.795Z,2.65
2022-11-04T03:20:27.600Z,2.92
2022-11-04T03:22:59.888Z,2.78
2022-11-04T03:25:33.457Z,2.87
2022-11-04T03:28:09.703Z,3.22
2022-11-04T03:30:43.854Z,2.85
2022-11-04T03:33:20.523Z,2.85
2022-11-04T03:35:49.261Z,3.20
2022-11-04T03:38:18.707Z,2.83
2022-11-04T03:40:47.194Z,3.03
2022-11-04T03:43:19.466Z,2.58
2022-11-04T03:45:48.914Z,2.67
2022-11-04T03:48:18.810Z,2.97
2022-11-04T03:50:49.174Z,2.47
2022-11-04T03:53:22.884Z,2.28
2022-11-04T03:56:09.081Z,2.30
2022-11-04T03:58:45.893Z,2.85
2022-11-04T04:01:28.201Z,2.67
2022-11-04T04:04:03.705Z,2.37
2022-11-04T04:06:36.352Z,2.62
2022-11-04T04:09:14.544Z,3.05
2022-11-04T04:11:46.717Z,2.33
2022-11-04T04:14:39.169Z,2.92
2022-11-04T04:17:12.512Z,2.45
2022-11-04T04:19:46.139Z,2.05
2022-11-04T04:22:18.263Z,3.08
2022-11-04T04:25:07.674Z,2.83
2022-11-04T04:27:36.824Z,2.55
2022-11-04T04:30:08.555Z,3.05
2022-11-04T04:32:40.496Z,2.72
2022-11-04T04:35:28.576Z,3.00
2022-11-04T04:38:19.938Z,2.97
2022-11-04T04:41:32.540Z,2.90
2022-11-04T04:44:18.944Z,3.00
2022-11-04T04:46:51.720Z,3.08
2022-11-04T04:49:20.026Z,2.50
2022-11-04T04:51:50.009Z,2.97
2022-11-04T04:54:18.292Z,2.22
2022-11-04T04:56:49.636Z,2.90
2022-11-04T04:59:18.130Z,3.08
2022-11-04T05:01:46.419Z,3.12
2022-11-04T05:04:14.726Z,2.85
2022-11-04T05:06:43.175Z,2.25
2022-11-04T05:09:12.733Z,2.55
2022-11-04T05:11:40.992Z,2.78
2022-11-04T05:14:09.589Z,2.65
2022-11-04T05:16:40.764Z,2.80
2022-11-04T05:19:09.538Z,2.65
2022-11-04T05:21:38.017Z,2.55
2022-11-04T05:24:06.479Z,3.08
2022-11-04T05:26:36.403Z,2.85
2022-11-04T05:29:04.689Z,2.78
2022-11-04T05:31:32.878Z,2.97
2022-11-04T05:34:01.367Z,3.30
2022-11-04T05:36:29.612Z,2.37
2022-11-04T05:38:57.797Z,2.97
2022-11-04T05:41:28.994Z,2.70
2022-11-04T05:44:00.207Z,2.45
2022-11-04T05:46:30.238Z,2.87
2022-11-04T05:48:59.327Z,3.03
2022-11-04T05:51:29.695Z,2.42
2022-11-04T05:53:59.068Z,2.85
2022-11-04T05:56:27.954Z,2.78
2022-11-04T05:58:58.444Z,2.47
2022-11-04T06:01:31.938Z,3.28
2022-11-04T06:04:02.026Z,2.55
2022-11-04T06:06:32.657Z,2.62
2022-11-04T06:09:01.745Z,2.78
2022-11-04T06:11:31.326Z,2.72
2022-11-04T06:14:01.490Z,3.28
2022-11-04T06:16:29.923Z,2.47
2022-11-04T06:19:01.579Z,3.00
2022-11-04T06:21:35.490Z,2.70
2022-11-04T06:24:04.385Z,2.70
2022-11-04T06:26:32.510Z,3.00
2022-11-04T06:29:02.441Z,3.17
2022-11-04T06:31:30.717Z,2.50
2022-11-04T06:33:59.018Z,2.62
2022-11-04T06:36:27.496Z,3.15
2022-11-04T06:38:59.929Z,2.90
2022-11-04T06:41:31.637Z,3.08
2022-11-04T06:43:59.909Z,2.70
2022-11-04T06:46:34.845Z,2.60
2022-11-04T06:49:03.729Z,2.72
2022-11-04T06:51:32.403Z,2.35
2022-11-04T06:54:00.741Z,2.72
2022-11-04T06:56:29.208Z,2.80
2022-11-04T06:58:58.447Z,2.72
2022-11-04T07:01:30.799Z,2.72
2022-11-04T07:04:01.503Z,3.05
2022-11-04T07:06:30.691Z,2.60
2022-11-04T07:09:00.827Z,2.60
2022-11-04T07:11:31.758Z,2.95
2022-11-04T07:14:00.159Z,2.80
2022-11-04T07:16:30.076Z,2.60
2022-11-04T07:18:58.368Z,3.05
2022-11-04T07:21:26.593Z,2.85
2022-11-04T07:23:55.006Z,3.20
2022-11-04T07:26:23.341Z,3.00
2022-11-04T07:28:52.895Z,3.10
2022-11-04T07:31:22.232Z,2.90
2022-11-04T07:33:51.823Z,2.97
2022-11-04T07:36:21.017Z,3.40
2022-11-04T07:38:49.908Z,3.33
2022-11-04T07:41:19.737Z,3.20
2022-11-04T07:43:51.634Z,3.00
2022-11-04T07:46:21.322Z,2.85
2022-11-04T07:48:50.980Z,3.03
2022-11-04T07:51:24.152Z,2.87
2022-11-04T07:53:52.429Z,2.42
2022-11-04T07:56:21.126Z,2.83
2022-11-04T07:58:49.296Z,2.83
2022-11-04T08:01:20.190Z,2.72
2022-11-04T08:03:49.991Z,3.03
2022-11-04T08:06:21.516Z,2.42
2022-11-04T08:08:50.286Z,2.60
2022-11-04T08:11:20.990Z,2.42
2022-11-04T08:13:49.622Z,2.50
2022-11-04T08:16:20.872Z,2.03
2022-11-04T08:18:51.593Z,2.65
2022-11-04T08:21:22.236Z,2.10
2022-11-04T08:23:51.650Z,2.55
2022-11-04T08:26:21.356Z,2.00
2022-11-04T08:28:50.255Z,2.30
2022-11-04T08:31:22.615Z,2.20
2022-11-04T08:33:51.400Z,2.37
2022-11-04T08:36:22.756Z,2.20
2022-11-04T08:38:52.022Z,2.42
2022-11-04T08:41:25.387Z,2.30
2022-11-04T08:43:54.473Z,2.20
2022-11-04T08:46:22.647Z,1.80
2022-11-04T08:48:51.001Z,2.05
2022-11-04T08:51:23.932Z,2.00
2022-11-04T08:53:53.049Z,1.65
2022-11-04T08:56:23.814Z,2.42
2022-11-04T08:58:52.342Z,2.10
2022-11-04T09:01:21.337Z,2.00
2022-11-04T09:03:50.836Z,1.73
2022-11-04T09:06:20.762Z,2.10
2022-11-04T09:08:50.909Z,1.67
2022-11-04T09:11:19.466Z,1.90
2022-11-04T09:13:48.004Z,1.35
2022-11-04T09:16:16.902Z,1.15
2022-11-04T09:18:45.501Z,0.93
2022-11-04T09:21:13.785Z,1.35
2022-11-04T09:23:42.046Z,1.87
2022-11-04T09:26:13.991Z,1.65
2022-11-04T09:28:43.117Z,1.52
2022-11-04T09:31:14.799Z,1.25
2022-11-04T09:33:43.682Z,1.10
2022-11-04T09:36:14.165Z,1.25
2022-11-04T09:38:43.310Z,1.40
2022-11-04T09:41:43.282Z,1.50
2022-11-04T09:44:22.235Z,1.27
2022-11-04T09:46:53.781Z,0.77
2022-11-04T09:49:23.469Z,1.95
2022-11-04T09:51:54.969Z,0.93
2022-11-04T09:54:26.731Z,1.20
2022-11-04T09:57:01.092Z,0.85
2022-11-04T09:59:33.161Z,0.75
2022-11-04T10:02:22.134Z,0.85
2022-11-04T10:05:04.010Z,0.75
2022-11-04T10:07:49.486Z,0.80
2022-11-04T10:10:25.648Z,0.90
2022-11-04T10:13:10.257Z,0.77
2022-11-04T10:15:54.963Z,0.70
2022-11-04T10:18:40.547Z,0.60
2022-11-04T10:21:22.664Z,0.80
2022-11-04T10:24:07.794Z,0.70
2022-11-04T10:26:45.587Z,0.82
2022-11-04T10:29:17.935Z,0.50
2022-11-04T10:31:48.349Z,0.80
2022-11-04T10:34:27.687Z,0.60
2022-11-04T10:36:58.596Z,0.40
2022-11-04T10:39:30.232Z,0.80
2022-11-04T10:41:59.412Z,0.77
2022-11-04T10:44:31.320Z,0.70
2022-11-04T10:47:08.898Z,0.65
2022-11-04T10:50:22.316Z,0.88
2022-11-04T10:52:43.026Z,0.62
2022-11-04T10:55:27.997Z,0.80
2022-11-04T10:57:58.646Z,0.77
2022-11-04T11:00:40.069Z,0.70
2022-11-04T11:03:28.291Z,1.15
2022-11-04T11:06:14.137Z,1.27
2022-11-04T11:08:45.049Z,1.20
2022-11-04T11:11:15.401Z,1.20
2022-11-04T11:13:46.597Z,1.10
2022-11-04T11:16:19.925Z,1.10
2022-11-04T11:19:15.482Z,1.45
2022-11-04T11:21:45.674Z,1.12
2022-11-04T11:24:21.823Z,1.15
2022-11-04T11:26:53.028Z,1.48
2022-11-04T11:29:25.562Z,1.00
2022-11-04T11:31:57.766Z,0.90
2022-11-04T11:37:07.726Z,0.93
2022-11-04T11:39:37.247Z,1.27
2022-11-04T11:42:08.535Z,1.00
2022-11-04T11:44:44.690Z,1.23
2022-11-04T11:47:23.429Z,0.90
2022-11-04T11:50:08.382Z,0.93
2022-11-04T11:52:39.958Z,1.00
2022-11-04T11:55:17.134Z,1.30
2022-11-04T12:00:52.046Z,1.98
2022-11-04T12:09:37.805Z,1.65
2022-11-04T12:12:19.810Z,0.98
2022-11-04T12:15:04.349Z,0.98
2022-11-04T12:17:49.528Z,1.15
2022-11-04T12:20:31.774Z,0.93
2022-11-04T12:23:06.470Z,0.90
2022-11-04T12:25:44.296Z,1.30
2022-11-04T12:28:25.699Z,0.90
2022-11-04T12:31:08.603Z,0.90
2022-11-04T12:33:41.598Z,0.80
2022-11-04T12:36:39.688Z,0.60
2022-11-04T12:39:24.107Z,1.15
2022-11-04T12:42:20.547Z,0.85
2022-11-04T12:44:58.926Z,1.20
2022-11-04T12:47:36.626Z,0.90
2022-11-04T12:50:16.024Z,1.02
2022-11-04T12:53:00.407Z,1.40
2022-11-04T12:55:43.337Z,1.10
2022-11-04T12:58:24.915Z,1.12
2022-11-04T13:00:59.947Z,0.88
2022-11-04T13:03:34.275Z,0.90
2022-11-04T13:06:07.049Z,0.80
2022-11-04T13:08:42.317Z,1.23
2022-11-04T13:11:23.694Z,2.90
2022-11-04T13:14:01.985Z,2.15
2022-11-04T13:16:32.823Z,1.65
2022-11-04T13:19:02.535Z,1.12
2022-11-04T13:21:37.331Z,0.60
2022-11-04T13:24:30.371Z,2.78
2022-11-04T13:27:02.943Z,1.08
2022-11-04T13:29:34.670Z,1.92
2022-11-04T13:32:06.914Z,1.05
2022-11-04T13:34:43.600Z,0.80
2022-11-04T13:37:22.008Z,0.95
2022-11-04T13:39:56.019Z,1.10
2022-11-04T13:42:52.595Z,0.82
2022-11-04T13:45:21.757Z,0.80
2022-11-04T13:47:54.069Z,0.62
2022-11-04T13:50:33.072Z,0.70
2022-11-04T13:53:01.607Z,0.75
2022-11-04T13:55:31.677Z,0.95
2022-11-04T13:58:02.729Z,0.55
2022-11-04T14:00:31.768Z,0.40
2022-11-04T14:03:01.869Z,0.50
2022-11-04T14:06:03.741Z,0.90
2022-11-04T14:08:32.931Z,0.80
2022-11-04T14:11:13.856Z,0.60
2022-11-04T14:14:11.918Z,0.82
2022-11-04T14:16:45.303Z,0.60
2022-11-04T14:19:56.999Z,0.57
2022-11-04T14:22:32.335Z,0.65
2022-11-04T14:25:03.206Z,0.73
2022-11-04T14:27:41.636Z,0.65
2022-11-04T14:30:33.278Z,0.70
2022-11-04T14:33:04.468Z,0.50
2022-11-04T14:35:34.236Z,0.40
2022-11-04T14:38:25.700Z,0.82
2022-11-04T14:41:14.540Z,0.50
2022-11-04T14:43:47.698Z,0.75
2022-11-04T14:46:23.660Z,0.90
2022-11-04T14:48:54.640Z,0.98
2022-11-04T14:51:27.764Z,0.70
2022-11-04T14:54:04.715Z,0.88
2022-11-04T14:56:34.011Z,1.00
2022-11-04T14:59:06.351Z,0.98
2022-11-04T15:01:38.542Z,1.10
2022-11-04T15:04:20.073Z,1.00
2022-11-04T15:06:55.785Z,0.90
2022-11-04T15:09:26.756Z,1.00
2022-11-04T15:12:24.913Z,1.20
2022-11-04T15:14:54.481Z,0.88
2022-11-04T15:17:26.550Z,1.15
2022-11-04T15:19:59.633Z,1.58
2022-11-04T15:22:30.625Z,1.40
2022-11-04T15:25:03.487Z,1.58
2022-11-04T15:27:34.435Z,1.35
2022-11-04T15:30:07.144Z,1.08
2022-11-04T15:32:36.047Z,2.17
2022-11-04T15:35:05.177Z,3.50
2022-11-04T15:37:44.923Z,3.08
2022-11-04T15:40:17.750Z,4.35
2022-11-04T15:42:50.749Z,3.12
2022-11-04T15:45:30.957Z,2.20
2022-11-04T15:48:31.643Z,2.30
2022-11-04T15:51:16.026Z,1.90
2022-11-04T15:53:54.824Z,2.72
2022-11-04T15:56:29.387Z,2.50
2022-11-04T15:59:16.536Z,2.62
2022-11-04T16:01:54.767Z,3.45
2022-11-04T16:04:32.027Z,3.85
2022-11-04T16:07:07.845Z,4.18
2022-11-04T16:09:48.230Z,5.82
2022-11-04T16:12:21.690Z,3.03
2022-11-04T16:14:55.334Z,2.95
2022-11-04T16:17:32.025Z,2.40
2022-11-04T16:20:06.751Z,2.30
2022-11-04T16:22:38.975Z,2.25
2022-11-04T16:25:22.508Z,2.33
2022-11-04T16:27:51.974Z,2.80
2022-11-04T16:30:23.460Z,1.92
2022-11-04T16:33:10.839Z,2.28
2022-11-04T16:35:43.152Z,1.92
2022-11-04T16:38:12.203Z,1.50
2022-11-04T16:40:53.445Z,1.33
2022-11-04T16:43:31.221Z,1.20
2022-11-04T16:46:06.675Z,1.10
2022-11-04T16:48:40.936Z,1.48
2022-11-04T16:51:16.692Z,0.98
2022-11-04T16:53:49.750Z,1.50
2022-11-04T16:56:40.619Z,1.02
2022-11-04T16:59:11.528Z,1.30
2022-11-04T17:01:40.622Z,1.33
2022-11-04T17:04:10.683Z,1.05
2022-11-04T17:06:39.290Z,1.20
2022-11-04T17:09:18.114Z,1.12
2022-11-04T17:11:46.402Z,1.58
2022-11-04T17:14:16.411Z,1.15
2022-11-04T17:16:45.419Z,1.40
2022-11-04T17:19:17.816Z,1.52
2022-11-04T17:21:46.898Z,1.37
2022-11-04T17:24:15.538Z,1.92
2022-11-04T17:26:43.735Z,1.15
2022-11-04T17:29:17.103Z,1.70
2022-11-04T17:31:46.123Z,1.58
2022-11-04T17:34:14.554Z,1.70
2022-11-04T17:36:44.162Z,1.83
2022-11-04T17:39:12.288Z,1.87
2022-11-04T17:41:58.211Z,1.30
2022-11-04T17:44:26.372Z,1.52
2022-11-04T17:46:54.879Z,1.45
2022-11-04T17:49:25.911Z,2.10
2022-11-04T17:51:58.193Z,1.95
2022-11-04T17:54:29.269Z,1.70
2022-11-04T17:56:57.885Z,2.20
2022-11-04T17:59:26.336Z,2.30
2022-11-04T18:01:54.728Z,2.65
2022-11-04T18:04:24.445Z,16.30
2022-11-04T18:06:55.082Z,9.23
2022-11-04T18:09:28.469Z,9.98
2022-11-04T18:12:14.134Z,10.15
2022-11-04T18:14:42.763Z,6.15
2022-11-04T18:17:11.004Z,6.37
2022-11-04T18:19:39.363Z,4.20
2022-11-04T18:22:08.082Z,4.03
2022-11-04T18:24:38.105Z,3.75
2022-11-04T18:27:06.578Z,3.62
2022-11-04T18:29:35.388Z,3.35
2022-11-04T18:32:07.042Z,4.20
2022-11-04T18:34:35.733Z,3.55
2022-11-04T18:37:03.928Z,4.00
2022-11-04T18:39:32.310Z,3.50
2022-11-04T18:42:08.945Z,3.50
2022-11-04T18:44:37.938Z,4.15
2022-11-04T18:47:08.980Z,3.58
2022-11-04T18:49:37.172Z,3.67
2022-11-04T18:52:06.055Z,4.03
2022-11-04T18:54:34.650Z,3.87
2022-11-04T18:57:05.106Z,3.67
2022-11-04T18:59:33.583Z,4.03
2022-11-04T19:02:02.475Z,4.65
2022-11-04T19:04:31.016Z,3.22
2022-11-04T19:06:59.356Z,2.65
2022-11-04T19:12:35.539Z,2.72
2022-11-04T19:15:05.106Z,2.80
2022-11-04T19:17:35.998Z,3.85
2022-11-04T19:20:11.337Z,3.50
2022-11-04T19:22:40.767Z,4.37
2022-11-04T19:25:10.403Z,3.28
2022-11-04T19:27:40.024Z,4.25
2022-11-04T19:30:09.840Z,4.90
2022-11-04T19:32:38.234Z,3.83
2022-11-04T19:35:07.358Z,4.32
2022-11-04T19:37:35.852Z,3.55
2022-11-04T19:40:06.258Z,4.43
2022-11-04T19:42:52.138Z,5.05
2022-11-04T19:45:22.432Z,4.22
2022-11-04T19:47:50.786Z,4.30
2022-11-04T19:50:19.314Z,4.03
2022-11-04T19:52:48.062Z,4.05
2022-11-04T19:55:16.711Z,3.80
2022-11-04T19:57:45.119Z,3.30
2022-11-04T20:00:15.114Z,3.67
2022-11-04T20:02:45.461Z,4.32
2022-11-04T20:05:14.028Z,3.47
2022-11-04T20:07:42.621Z,3.40
2022-11-04T20:10:11.626Z,4.07
2022-11-04T20:12:57.769Z,3.78
2022-11-04T20:15:26.715Z,4.05
2022-11-04T20:17:56.841Z,3.72
2022-11-04T20:20:25.348Z,4.07
2022-11-04T20:22:53.996Z,4.05
2022-11-04T20:25:22.416Z,3.45
2022-11-04T20:27:50.839Z,3.92
2022-11-04T20:30:19.612Z,3.55
2022-11-04T20:32:47.959Z,4.00
2022-11-04T20:35:17.569Z,3.40
2022-11-04T20:37:47.076Z,3.60
2022-11-04T20:40:15.642Z,4.30
2022-11-04T20:42:47.833Z,3.75
2022-11-04T20:45:17.652Z,3.70
2022-11-04T20:47:46.139Z,4.45
2022-11-04T20:50:14.933Z,4.30
2022-11-04T20:52:44.875Z,4.15
2022-11-04T20:55:13.360Z,4.50
2022-11-04T20:57:41.741Z,4.25
2022-11-04T21:00:12.951Z,4.85
2022-11-04T21:02:41.323Z,5.18
2022-11-04T21:05:10.391Z,5.05
2022-11-04T21:07:41.910Z,4.65
2022-11-04T21:10:12.269Z,5.00
2022-11-04T21:12:40.505Z,4.93
2022-11-04T21:15:29.763Z,4.15
2022-11-04T21:17:58.396Z,3.97
2022-11-04T21:20:27.466Z,4.60
2022-11-04T21:22:55.760Z,4.25
2022-11-04T21:25:25.701Z,5.30
2022-11-04T21:27:54.066Z,4.40
2022-11-04T21:30:22.337Z,4.72
2022-11-04T21:32:50.768Z,4.87
2022-11-04T21:35:19.033Z,4.40
2022-11-04T21:37:47.372Z,4.55
2022-11-04T21:40:16.244Z,4.22
2022-11-04T21:42:45.932Z,4.20
2022-11-04T21:45:14.448Z,4.57
2022-11-04T21:47:43.242Z,4.43
2022-11-04T21:50:17.662Z,4.65
2022-11-04T21:52:47.196Z,4.55
2022-11-04T21:55:16.098Z,4.25
2022-11-04T21:57:45.736Z,5.03
2022-11-04T22:00:15.469Z,4.12
2022-11-04T22:02:47.325Z,4.60
2022-11-04T22:05:15.994Z,5.22
2022-11-04T22:08:01.887Z,4.28
2022-11-04T22:10:30.602Z,5.03
2022-11-04T22:13:00.717Z,4.53
2022-11-04T22:15:48.901Z,5.03
2022-11-04T22:18:17.543Z,4.65
2022-11-04T22:20:45.838Z,4.75
2022-11-04T22:23:14.185Z,4.60
2022-11-04T22:25:47.320Z,4.60
2022-11-04T22:28:20.893Z,3.97
2022-11-04T22:30:49.650Z,4.60
2022-11-04T22:33:18.100Z,5.25
2022-11-04T22:35:46.946Z,4.28
2022-11-04T22:38:15.442Z,4.25
2022-11-04T22:40:43.635Z,4.15
2022-11-04T22:43:12.205Z,4.28
2022-11-04T22:45:42.158Z,4.37
2022-11-04T22:48:10.444Z,4.62
2022-11-04T22:50:38.658Z,4.55
2022-11-04T22:53:07.388Z,4.45
2022-11-04T22:55:36.768Z,4.55
2022-11-04T22:58:06.470Z,4.43
2022-11-04T23:00:35.377Z,4.40
2022-11-04T23:03:05.356Z,3.90
2022-11-04T23:05:34.354Z,4.45
2022-11-04T23:08:03.296Z,3.62
2022-11-04T23:10:55.535Z,3.90
2022-11-04T23:13:41.734Z,4.47
2022-11-04T23:16:44.850Z,4.35
2022-11-04T23:19:15.048Z,4.25
2022-11-04T23:22:00.809Z,4.55
2022-11-04T23:24:46.671Z,3.85
2022-11-04T23:27:35.283Z,4.28
2022-11-04T23:30:25.324Z,3.90
2022-11-04T23:32:55.620Z,4.40
2022-11-04T23:35:45.523Z,4.95
2022-11-04T23:38:14.404Z,4.50
2022-11-04T23:41:03.695Z,4.90
2022-11-04T23:43:31.237Z,4.30
2022-11-04T23:46:28.900Z,4.60
2022-11-04T23:49:14.589Z,4.32
2022-11-04T23:52:02.365Z,4.12
2022-11-04T23:54:47.969Z,4.18
2022-11-04T23:57:36.032Z,4.62
